createdAt,value
2018-06-08T00:00:26.750Z,77.70
2018-06-08T00:02:54.047Z,77.50
2018-06-08T00:05:21.378Z,77.60
2018-06-08T00:07:48.729Z,77.80
2018-06-08T00:10:16.071Z,77.80
2018-06-08T00:12:43.430Z,78.10
2018-06-08T00:15:10.756Z,78.10
2018-06-08T00:17:38.096Z,77.30
2018-06-08T00:20:05.424Z,77.30
2018-06-08T00:22:32.825Z,78.00
2018-06-08T00:25:00.154Z,77.90
2018-06-08T00:27:27.481Z,78.30
2018-06-08T00:29:54.820Z,78.50
2018-06-08T00:32:22.130Z,78.30
2018-06-08T00:34:49.434Z,78.30
2018-06-08T00:37:16.740Z,78.80
2018-06-08T00:39:44.040Z,78.50
2018-06-08T00:42:11.382Z,78.90
2018-06-08T00:44:38.688Z,78.50
2018-06-08T00:47:06.010Z,78.60
2018-06-08T00:49:33.325Z,79.40
2018-06-08T00:52:00.748Z,80.00
2018-06-08T00:54:28.083Z,80.60
2018-06-08T00:57:04.980Z,80.50
2018-06-08T00:59:32.304Z,80.60
2018-06-08T01:01:59.636Z,80.80
2018-06-08T01:04:27.010Z,81.00
2018-06-08T01:06:54.328Z,81.30
2018-06-08T01:09:21.704Z,81.20
2018-06-08T01:11:49.010Z,81.10
2018-06-08T01:14:16.354Z,81.00
2018-06-08T01:16:43.650Z,80.30
2018-06-08T01:19:11.028Z,80.50
2018-06-08T01:21:38.385Z,80.40
2018-06-08T01:24:05.706Z,80.70
2018-06-08T01:26:33.031Z,81.00
2018-06-08T01:29:00.365Z,81.40
2018-06-08T01:31:27.714Z,81.30
2018-06-08T01:33:55.063Z,81.10
2018-06-08T01:36:22.361Z,80.90
2018-06-08T01:38:49.772Z,80.20
2018-06-08T01:41:17.099Z,79.60
2018-06-08T01:43:44.405Z,79.80
2018-06-08T01:46:11.733Z,79.90
2018-06-08T01:48:39.055Z,80.10
2018-06-08T01:51:06.363Z,80.30
2018-06-08T01:53:33.715Z,80.40
2018-06-08T01:56:01.045Z,80.80
2018-06-08T01:58:28.399Z,81.00
2018-06-08T02:00:55.760Z,81.20
2018-06-08T02:03:23.160Z,81.60
2018-06-08T02:05:50.482Z,81.90
2018-06-08T02:08:17.835Z,81.80
2018-06-08T02:10:45.157Z,81.90
2018-06-08T02:13:12.515Z,81.80
2018-06-08T02:15:39.827Z,81.90
2018-06-08T02:18:07.151Z,82.50
2018-06-08T02:20:34.492Z,82.30
2018-06-08T02:23:01.848Z,82.10
2018-06-08T02:25:29.185Z,82.60
2018-06-08T02:27:56.539Z,82.50
2018-06-08T02:30:23.892Z,82.60
2018-06-08T02:32:51.245Z,82.50
2018-06-08T02:35:18.597Z,82.70
2018-06-08T02:37:45.966Z,82.80
2018-06-08T02:40:13.343Z,83.10
2018-06-08T02:42:40.700Z,82.80
2018-06-08T02:45:08.043Z,83.00
2018-06-08T02:47:35.387Z,82.90
2018-06-08T02:50:02.770Z,83.60
2018-06-08T02:52:30.124Z,83.30
2018-06-08T02:54:57.483Z,83.40
2018-06-08T02:57:24.798Z,83.20
2018-06-08T02:59:52.161Z,82.60
2018-06-08T03:02:19.507Z,82.40
2018-06-08T03:04:46.842Z,82.60
2018-06-08T03:07:14.188Z,82.60
2018-06-08T03:09:41.627Z,82.50
2018-06-08T03:12:09.076Z,82.30
2018-06-08T03:14:36.388Z,82.30
2018-06-08T03:17:03.746Z,82.30
2018-06-08T03:19:31.098Z,82.10
2018-06-08T03:21:58.463Z,82.20
2018-06-08T03:24:25.826Z,82.40
2018-06-08T03:26:53.200Z,82.50
2018-06-08T03:29:20.527Z,82.50
2018-06-08T03:31:48.518Z,82.30
2018-06-08T03:34:15.846Z,82.40
2018-06-08T03:36:43.215Z,82.30
2018-06-08T03:39:10.557Z,82.40
2018-06-08T03:41:37.887Z,82.50
2018-06-08T03:44:05.235Z,82.20
2018-06-08T03:46:32.585Z,82.20
2018-06-08T03:48:59.957Z,82.60
2018-06-08T03:53:54.951Z,83.20
2018-06-08T03:56:22.319Z,83.30
2018-06-08T03:58:49.754Z,83.70
2018-06-08T04:01:17.072Z,83.80
2018-06-08T04:03:44.418Z,84.00
2018-06-08T04:06:11.783Z,83.80
2018-06-08T04:08:39.143Z,83.60
2018-06-08T04:11:06.489Z,84.10
2018-06-08T04:13:33.787Z,84.50
2018-06-08T04:16:01.111Z,84.40
2018-06-08T04:18:28.486Z,84.30
2018-06-08T04:20:55.801Z,84.20
2018-06-08T04:23:23.176Z,84.10
2018-06-08T04:25:50.552Z,84.00
2018-06-08T04:28:17.852Z,83.40
2018-06-08T04:30:45.179Z,83.70
2018-06-08T04:33:12.557Z,83.10
2018-06-08T04:35:39.883Z,83.50
2018-06-08T04:38:07.238Z,83.20
2018-06-08T04:40:34.617Z,83.50
2018-06-08T04:43:02.003Z,84.00
2018-06-08T04:45:29.449Z,84.30
2018-06-08T04:47:56.760Z,84.40
2018-06-08T04:50:24.110Z,84.20
2018-06-08T04:52:51.450Z,84.10
2018-06-08T04:55:18.763Z,84.00
2018-06-08T04:57:46.064Z,83.40
2018-06-08T05:00:13.403Z,83.60
2018-06-08T05:02:40.704Z,83.20
2018-06-08T05:05:08.022Z,82.90
2018-06-08T05:07:35.393Z,82.90
2018-06-08T05:10:02.715Z,82.90
2018-06-08T05:14:57.252Z,82.70
2018-06-08T05:17:24.583Z,82.10
2018-06-08T05:19:51.882Z,82.00
2018-06-08T05:22:19.203Z,82.60
2018-06-08T05:24:46.593Z,82.50
2018-06-08T05:27:13.998Z,82.20
2018-06-08T05:29:41.371Z,81.00
2018-06-08T05:32:08.704Z,80.00
2018-06-08T05:34:36.211Z,80.30
2018-06-08T05:37:03.729Z,79.50
2018-06-08T05:39:31.052Z,80.50
2018-06-08T05:41:58.364Z,79.70
2018-06-08T05:44:25.740Z,79.70
2018-06-08T05:46:53.093Z,78.90
2018-06-08T05:49:20.391Z,79.30
2018-06-08T05:51:47.898Z,78.90
2018-06-08T05:54:15.267Z,77.60
2018-06-08T05:56:42.553Z,78.20
2018-06-08T05:59:09.865Z,79.10
2018-06-08T06:01:37.200Z,80.00
2018-06-08T06:04:04.554Z,80.50
2018-06-08T06:06:31.873Z,81.00
2018-06-08T06:08:59.208Z,79.50
2018-06-08T06:11:26.494Z,79.90
2018-06-08T06:13:53.845Z,79.70
2018-06-08T06:16:21.189Z,79.80
2018-06-08T06:18:48.543Z,79.20
2018-06-08T06:21:15.864Z,78.80
2018-06-08T06:23:43.285Z,78.10
2018-06-08T06:26:10.675Z,77.30
2018-06-08T06:28:38.018Z,77.00
2018-06-08T06:31:05.378Z,76.40
2018-06-08T06:33:32.736Z,76.40
2018-06-08T06:36:00.092Z,75.20
2018-06-08T06:38:27.485Z,74.90
2018-06-08T06:40:54.801Z,74.60
2018-06-08T06:43:22.188Z,74.10
2018-06-08T06:45:49.544Z,73.90
2018-06-08T06:48:16.900Z,73.70
2018-06-08T06:50:44.255Z,73.20
2018-06-08T06:53:11.655Z,72.90
2018-06-08T06:55:38.961Z,72.60
2018-06-08T06:58:06.288Z,72.40
2018-06-08T07:00:33.608Z,72.90
2018-06-08T07:03:00.988Z,71.70
2018-06-08T07:05:28.328Z,71.50
2018-06-08T07:07:55.848Z,73.40
2018-06-08T07:10:23.235Z,73.30
2018-06-08T07:12:51.005Z,73.10
2018-06-08T07:15:18.391Z,73.20
2018-06-08T07:17:45.752Z,72.80
2018-06-08T07:20:13.169Z,72.70
2018-06-08T07:22:40.506Z,72.50
2018-06-08T07:25:07.856Z,72.50
2018-06-08T07:27:35.190Z,72.70
2018-06-08T07:30:02.548Z,72.10
2018-06-08T07:32:29.903Z,72.70
2018-06-08T07:34:57.259Z,73.10
2018-06-08T07:37:24.646Z,73.30
2018-06-08T07:39:51.968Z,72.00
2018-06-08T07:42:19.384Z,72.10
2018-06-08T07:47:13.921Z,71.90
2018-06-08T07:49:41.277Z,70.70
2018-06-08T07:52:08.648Z,70.20
2018-06-08T07:54:35.958Z,70.40
2018-06-08T07:57:03.335Z,70.30
2018-06-08T07:59:30.879Z,70.20
2018-06-08T08:01:58.470Z,69.70
2018-06-08T08:04:25.826Z,70.40
2018-06-08T08:06:53.166Z,70.60
2018-06-08T08:09:20.499Z,70.60
2018-06-08T08:11:47.815Z,69.90
2018-06-08T08:14:15.155Z,70.80
2018-06-08T08:16:42.487Z,72.40
2018-06-08T08:19:09.815Z,71.80
2018-06-08T08:21:37.115Z,70.50
2018-06-08T08:24:04.748Z,70.90
2018-06-08T08:26:32.077Z,71.00
2018-06-08T08:28:59.400Z,69.90
2018-06-08T08:31:26.742Z,70.20
2018-06-08T08:33:54.060Z,69.30
2018-06-08T08:36:21.360Z,69.70
2018-06-08T08:38:48.704Z,70.30
2018-06-08T08:41:16.030Z,70.50
2018-06-08T08:43:43.326Z,71.60
2018-06-08T08:46:10.675Z,70.80
2018-06-08T08:48:37.985Z,71.40
2018-06-08T08:51:05.410Z,71.20
2018-06-08T08:53:32.718Z,69.50
2018-06-08T08:56:00.133Z,70.20
2018-06-08T08:58:27.547Z,69.80
2018-06-08T09:00:54.885Z,70.30
2018-06-08T09:03:22.202Z,69.10
2018-06-08T09:05:49.653Z,66.90
2018-06-08T09:08:16.968Z,65.70
2018-06-08T09:10:44.329Z,65.20
2018-06-08T09:13:11.665Z,64.80
2018-06-08T09:15:38.997Z,64.40
2018-06-08T09:18:06.323Z,64.90
2018-06-08T09:20:33.698Z,65.10
2018-06-08T09:23:01.107Z,64.90
2018-06-08T09:25:28.416Z,65.10
2018-06-08T09:27:55.771Z,64.90
2018-06-08T09:30:23.063Z,65.70
2018-06-08T09:32:50.389Z,64.60
2018-06-08T09:35:17.680Z,65.40
2018-06-08T09:37:45.003Z,65.70
2018-06-08T09:40:12.311Z,65.00
2018-06-08T09:42:39.660Z,64.40
2018-06-08T09:45:06.997Z,64.00
2018-06-08T09:47:34.300Z,63.30
2018-06-08T09:50:01.745Z,64.20
2018-06-08T09:52:29.139Z,64.60
2018-06-08T09:54:56.468Z,65.10
2018-06-08T09:57:23.817Z,65.10
2018-06-08T09:59:51.139Z,63.80
2018-06-08T10:02:18.464Z,64.10
2018-06-08T10:04:45.830Z,63.60
2018-06-08T10:07:13.134Z,63.80
2018-06-08T10:09:40.432Z,63.60
2018-06-08T10:12:07.807Z,62.90
2018-06-08T10:14:35.253Z,62.20
2018-06-08T10:17:02.589Z,62.00
2018-06-08T10:19:30.061Z,62.10
2018-06-08T10:21:57.438Z,62.80
2018-06-08T10:24:24.694Z,62.50
2018-06-08T10:26:52.024Z,62.20
2018-06-08T10:29:19.399Z,62.40
2018-06-08T10:31:46.694Z,62.40
2018-06-08T10:34:14.030Z,62.50
2018-06-08T10:36:41.322Z,63.90
2018-06-08T10:39:08.880Z,64.40
2018-06-08T10:41:36.204Z,63.80
2018-06-08T10:44:03.504Z,63.00
2018-06-08T10:46:30.857Z,62.20
2018-06-08T10:48:58.223Z,62.30
2018-06-08T10:51:25.592Z,62.10
2018-06-08T10:56:20.078Z,61.70
2018-06-08T10:58:47.427Z,62.10
2018-06-08T11:01:14.735Z,61.90
2018-06-08T11:03:42.037Z,61.80
2018-06-08T11:06:09.375Z,60.40
2018-06-08T11:08:36.681Z,61.10
2018-06-08T11:11:04.039Z,61.40
2018-06-08T11:13:31.353Z,62.80
2018-06-08T11:15:58.715Z,62.50
2018-06-08T11:18:26.010Z,62.90
2018-06-08T11:20:53.311Z,62.50
2018-06-08T11:23:20.638Z,63.00
2018-06-08T11:25:47.956Z,61.70
2018-06-08T11:28:15.283Z,61.30
2018-06-08T11:30:42.583Z,60.80
2018-06-08T11:33:09.919Z,61.40
2018-06-08T11:35:37.290Z,60.50
2018-06-08T11:38:04.747Z,60.80
2018-06-08T11:40:32.084Z,61.00
2018-06-08T11:42:59.488Z,60.50
2018-06-08T11:45:26.834Z,60.50
2018-06-08T11:47:54.163Z,59.70
2018-06-08T11:50:21.539Z,59.10
2018-06-08T11:55:16.040Z,58.90
2018-06-08T11:57:43.451Z,59.00
2018-06-08T12:00:10.949Z,59.30
2018-06-08T12:02:38.102Z,59.10
2018-06-08T12:05:05.402Z,59.60
2018-06-08T12:07:32.727Z,59.20
2018-06-08T12:10:00.210Z,59.00
2018-06-08T12:12:27.526Z,57.80
2018-06-08T12:14:54.828Z,58.90
2018-06-08T12:17:22.124Z,58.80
2018-06-08T12:19:49.463Z,59.30
2018-06-08T12:22:16.750Z,58.60
2018-06-08T12:24:44.184Z,58.80
2018-06-08T12:27:11.462Z,59.20
2018-06-08T12:29:38.767Z,60.30
2018-06-08T12:32:06.071Z,59.40
2018-06-08T12:34:33.478Z,59.30
2018-06-08T12:37:00.835Z,58.30
2018-06-08T12:39:28.806Z,58.20
2018-06-08T12:41:56.913Z,57.60
2018-06-08T12:44:24.227Z,57.10
2018-06-08T12:46:51.522Z,57.30
2018-06-08T12:49:18.830Z,57.30
2018-06-08T12:51:46.135Z,58.10
2018-06-08T12:54:13.512Z,58.30
2018-06-08T12:56:40.974Z,57.20
2018-06-08T12:59:08.281Z,57.60
2018-06-08T13:01:35.574Z,57.50
2018-06-08T13:04:02.960Z,57.70
2018-06-08T13:06:30.288Z,57.20
2018-06-08T13:08:57.682Z,57.20
2018-06-08T13:11:24.983Z,57.40
2018-06-08T13:13:52.287Z,57.50
2018-06-08T13:16:19.646Z,57.00
2018-06-08T13:18:46.981Z,57.10
2018-06-08T13:21:14.307Z,58.20
2018-06-08T13:23:41.691Z,58.00
2018-06-08T13:26:09.020Z,57.90
2018-06-08T13:31:03.602Z,57.60
2018-06-08T13:33:30.975Z,57.80
2018-06-08T13:35:58.283Z,58.70
2018-06-08T13:38:25.628Z,58.40
2018-06-08T13:40:52.964Z,58.70
2018-06-08T13:43:20.304Z,58.10
2018-06-08T13:45:47.587Z,58.30
2018-06-08T13:48:14.896Z,58.10
2018-06-08T13:50:42.309Z,57.90
2018-06-08T13:55:36.839Z,57.10
2018-06-08T13:58:04.210Z,57.30
2018-06-08T14:00:31.520Z,56.70
2018-06-08T14:02:58.850Z,56.80
2018-06-08T14:05:26.127Z,56.70
2018-06-08T14:07:53.470Z,56.80
2018-06-08T14:10:20.802Z,56.70
2018-06-08T14:12:48.143Z,58.60
2018-06-08T14:15:15.443Z,60.80
2018-06-08T14:17:42.891Z,61.00
2018-06-08T14:20:10.272Z,60.50
2018-06-08T14:22:37.594Z,59.00
2018-06-08T14:27:32.194Z,59.70
2018-06-08T14:29:59.512Z,59.10
2018-06-08T14:32:26.913Z,58.50
2018-06-08T14:34:54.454Z,57.70
2018-06-08T14:37:21.862Z,58.10
2018-06-08T14:39:49.231Z,58.70
2018-06-08T14:42:16.562Z,58.50
2018-06-08T14:44:43.859Z,58.80
2018-06-08T14:47:11.400Z,58.40
2018-06-08T14:49:38.767Z,58.30
2018-06-08T14:52:06.074Z,58.10
2018-06-08T14:54:33.492Z,58.10
2018-06-08T14:57:00.952Z,58.20
2018-06-08T14:59:28.940Z,57.40
2018-06-08T15:01:56.293Z,57.60
2018-06-08T15:04:23.659Z,57.40
2018-06-08T15:06:50.984Z,57.60
2018-06-08T15:09:18.290Z,57.90
2018-06-08T15:11:45.644Z,57.80
2018-06-08T15:14:12.982Z,57.60
2018-06-08T15:16:40.324Z,56.70
2018-06-08T15:19:07.656Z,56.20
2018-06-08T15:21:34.988Z,56.60
2018-06-08T15:24:02.353Z,55.60
2018-06-08T15:26:29.664Z,55.30
2018-06-08T15:28:57.037Z,54.50
2018-06-08T15:31:24.372Z,54.70
2018-06-08T15:33:52.774Z,55.70
2018-06-08T15:36:20.068Z,56.60
2018-06-08T15:38:47.390Z,56.10
2018-06-08T15:41:14.706Z,57.20
2018-06-08T15:43:42.049Z,58.00
2018-06-08T15:46:09.399Z,58.80
2018-06-08T15:48:36.734Z,59.40
2018-06-08T15:51:04.105Z,60.60
2018-06-08T15:55:58.956Z,61.40
2018-06-08T15:58:26.422Z,61.10
2018-06-08T16:00:53.814Z,61.90
2018-06-08T16:03:21.242Z,61.80
2018-06-08T16:05:48.712Z,61.90
2018-06-08T16:08:16.052Z,61.80
2018-06-08T16:10:43.388Z,61.70
2018-06-08T16:13:10.794Z,62.10
2018-06-08T16:15:38.126Z,61.90
2018-06-08T16:18:05.491Z,61.80
2018-06-08T16:20:32.865Z,62.70
2018-06-08T16:23:00.285Z,63.30
2018-06-08T16:25:27.784Z,64.70
2018-06-08T16:27:55.101Z,65.00
2018-06-08T16:30:22.502Z,64.80
2018-06-08T16:32:49.822Z,64.80
2018-06-08T16:35:17.208Z,63.60
2018-06-08T16:37:44.541Z,63.40
2018-06-08T16:40:11.865Z,64.10
2018-06-08T16:42:39.190Z,63.40
2018-06-08T16:45:06.527Z,63.00
2018-06-08T16:47:33.874Z,62.90
2018-06-08T16:50:01.272Z,63.10
2018-06-08T16:52:28.691Z,62.90
2018-06-08T16:54:56.021Z,63.30
2018-06-08T16:57:23.397Z,63.80
2018-06-08T17:02:30.506Z,64.20
2018-06-08T17:04:57.899Z,64.30
2018-06-08T17:07:25.358Z,64.50
2018-06-08T17:09:52.713Z,64.60
2018-06-08T17:12:20.084Z,64.90
2018-06-08T17:14:47.406Z,65.00
2018-06-08T17:17:14.790Z,65.40
2018-06-08T17:19:42.195Z,66.00
2018-06-08T17:22:09.536Z,66.30
2018-06-08T17:24:36.860Z,66.80
2018-06-08T17:27:04.741Z,66.70
2018-06-08T17:29:32.178Z,66.50
2018-06-08T17:31:59.517Z,66.50
2018-06-08T17:34:26.895Z,66.00
2018-06-08T17:36:54.214Z,65.80
2018-06-08T17:39:21.743Z,65.40
2018-06-08T17:41:49.090Z,65.00
2018-06-08T17:44:16.475Z,64.20
2018-06-08T17:46:43.827Z,64.20
2018-06-08T17:49:11.248Z,63.60
2018-06-08T17:51:38.637Z,64.00
2018-06-08T17:54:05.989Z,64.80
2018-06-08T17:56:33.429Z,65.30
2018-06-08T17:59:00.792Z,65.60
2018-06-08T18:01:28.193Z,65.20
2018-06-08T18:03:55.510Z,65.10
2018-06-08T18:06:22.855Z,65.20
2018-06-08T18:08:50.198Z,65.70
2018-06-08T18:11:17.564Z,66.20
2018-06-08T18:13:44.918Z,67.00
2018-06-08T18:16:12.291Z,67.90
2018-06-08T18:18:39.639Z,69.00
2018-06-08T18:21:07.002Z,69.00
2018-06-08T18:23:34.500Z,69.00
2018-06-08T18:26:01.857Z,69.50
2018-06-08T18:28:30.512Z,69.70
2018-06-08T18:30:57.957Z,69.90
2018-06-08T18:33:25.280Z,70.10
2018-06-08T18:35:52.631Z,70.10
2018-06-08T18:38:19.975Z,69.40
2018-06-08T18:40:47.332Z,68.50
2018-06-08T18:43:14.698Z,68.60
2018-06-08T18:45:42.124Z,68.30
2018-06-08T18:48:09.454Z,68.00
2018-06-08T18:50:36.841Z,68.30
2018-06-08T18:53:04.223Z,68.20
2018-06-08T18:55:31.765Z,68.10
2018-06-08T18:57:59.119Z,67.10
2018-06-08T19:00:26.526Z,66.90
2018-06-08T19:02:53.867Z,66.10
2018-06-08T19:05:21.220Z,64.70
2018-06-08T19:07:48.778Z,64.50
2018-06-08T19:10:16.134Z,64.30
2018-06-08T19:12:43.476Z,64.80
2018-06-08T19:15:10.841Z,64.90
2018-06-08T19:17:38.329Z,64.90
2018-06-08T19:20:06.279Z,64.60
2018-06-08T19:22:33.624Z,64.80
2018-06-08T19:25:01.198Z,64.90
2018-06-08T19:27:28.769Z,64.80
2018-06-08T19:29:56.075Z,65.20
2018-06-08T19:32:23.433Z,65.10
2018-06-08T19:34:50.789Z,64.90
2018-06-08T19:37:18.187Z,64.80
2018-06-08T19:39:45.571Z,64.90
2018-06-08T19:42:12.878Z,64.70
2018-06-08T19:44:40.232Z,64.70
2018-06-08T19:47:07.580Z,64.90
2018-06-08T19:49:34.914Z,65.20
2018-06-08T19:52:02.307Z,66.00
2018-06-08T19:54:29.631Z,66.90
2018-06-08T19:56:56.987Z,67.20
2018-06-08T19:59:24.322Z,68.20
2018-06-08T20:01:51.722Z,68.40
2018-06-08T20:04:19.095Z,68.40
2018-06-08T20:06:46.480Z,68.60
2018-06-08T20:09:13.779Z,68.80
2018-06-08T20:11:41.106Z,69.20
2018-06-08T20:14:08.422Z,69.90
2018-06-08T20:16:35.725Z,69.70
2018-06-08T20:19:03.134Z,69.30
2018-06-08T20:21:30.515Z,69.50
2018-06-08T20:23:57.821Z,69.50
2018-06-08T20:26:25.799Z,70.00
2018-06-08T20:28:53.092Z,70.40
2018-06-08T20:31:20.552Z,70.40
2018-06-08T20:33:47.847Z,70.40
2018-06-08T20:36:15.223Z,70.20
2018-06-08T20:38:42.580Z,69.60
2018-06-08T20:41:09.905Z,69.80
2018-06-08T20:43:37.233Z,69.40
2018-06-08T20:46:04.582Z,69.40
2018-06-08T20:48:31.898Z,69.70
2018-06-08T20:50:59.239Z,69.90
2018-06-08T20:53:26.648Z,70.00
2018-06-08T20:55:53.993Z,70.00
2018-06-08T20:58:25.730Z,70.30
2018-06-08T21:00:53.036Z,70.40
2018-06-08T21:03:20.376Z,70.70
2018-06-08T21:05:47.738Z,70.90
2018-06-08T21:08:15.044Z,70.60
2018-06-08T21:13:10.117Z,70.30
2018-06-08T21:15:38.123Z,70.40
2018-06-08T21:18:05.677Z,70.20
2018-06-08T21:20:33.353Z,70.20
2018-06-08T21:23:01.452Z,70.40
2018-06-08T21:25:29.451Z,70.10
2018-06-08T21:27:57.386Z,70.00
2018-06-08T21:30:25.524Z,69.90
2018-06-08T21:32:52.921Z,70.30
2018-06-08T21:35:20.258Z,70.90
2018-06-08T21:37:47.574Z,71.20
2018-06-08T21:40:14.985Z,71.30
2018-06-08T21:42:42.295Z,71.80
2018-06-08T21:45:09.707Z,72.40
2018-06-08T21:47:37.113Z,72.70
2018-06-08T21:50:04.436Z,72.70
2018-06-08T21:52:31.730Z,72.60
2018-06-08T21:54:59.134Z,72.50
2018-06-08T21:57:26.478Z,72.30
2018-06-08T21:59:53.795Z,72.20
2018-06-08T22:02:21.114Z,72.20
2018-06-08T22:04:48.451Z,72.40
2018-06-08T22:07:15.797Z,72.60
2018-06-08T22:09:43.133Z,73.30
2018-06-08T22:12:10.440Z,73.60
2018-06-08T22:14:37.759Z,73.70
2018-06-08T22:17:05.202Z,73.70
2018-06-08T22:19:32.575Z,73.70
2018-06-08T22:22:00.043Z,73.70
2018-06-08T22:24:27.366Z,73.80
2018-06-08T22:26:54.662Z,73.70
2018-06-08T22:29:22.240Z,73.50
2018-06-08T22:31:49.538Z,73.40
2018-06-08T22:34:16.851Z,73.60
2018-06-08T22:36:44.188Z,73.80
2018-06-08T22:39:11.481Z,73.70
2018-06-08T22:41:38.807Z,73.60
2018-06-08T22:44:06.531Z,73.90
2018-06-08T22:46:34.069Z,74.20
2018-06-08T22:49:01.447Z,74.30
2018-06-08T22:51:28.860Z,74.10
2018-06-08T22:53:56.212Z,74.10
2018-06-08T22:56:23.521Z,74.10
2018-06-08T22:58:51.074Z,73.90
2018-06-08T23:01:18.960Z,73.70
2018-06-08T23:03:46.254Z,73.50
2018-06-08T23:06:13.572Z,73.60
2018-06-08T23:08:41.004Z,73.70
2018-06-08T23:11:08.303Z,73.60
2018-06-08T23:13:35.612Z,73.60
2018-06-08T23:16:03.063Z,73.90
2018-06-08T23:18:30.492Z,73.70
2018-06-08T23:20:57.852Z,73.60
2018-06-08T23:23:25.215Z,73.70
2018-06-08T23:25:52.574Z,73.60
2018-06-08T23:28:19.892Z,73.50
2018-06-08T23:30:47.225Z,73.60
2018-06-08T23:33:14.583Z,73.70
2018-06-08T23:35:41.920Z,73.80
2018-06-08T23:38:09.280Z,73.90
2018-06-08T23:40:36.635Z,73.80
2018-06-08T23:43:04.145Z,74.00
2018-06-08T23:45:31.669Z,74.10
2018-06-08T23:47:59.020Z,73.70
2018-06-08T23:50:26.335Z,73.90
2018-06-08T23:52:53.706Z,74.10
2018-06-08T23:55:21.026Z,74.10
2018-06-08T23:57:48.383Z,74.20
